Pagina principală
METAR-TAF:

METAR-TAF

Aeroporturi :

Victoria Regional Airport

Victoria, Texas, Statele Unite ale Americii

Latitudine: 28-51-45N, longitudine: 096-55-47W, elevație: 35 m

Observații meteo curente

Raportul a fost făcut în urmă cu 1 oră și 3 de minute, la 05:51 UTC
Vânt 3 kt de la Est/Sud-est
Temperatură 26°C
Umiditate 89%
Presiune 1013 hPa
Vizibilitate: 16.1 km
Cer senin

METAR: KVCT 140551Z AUTO 12003KT 10SM CLR 26/24 A2991 RMK AO2 SLP125 T02610244 10322 20261 403500239 50009

Ora: 01:54 (06:54 UTC)

Prognoză

Raportul a fost făcut în urmă cu 1 oră și 34 de minute, la 05:20 UTC
Prognoză valabilă de la 14 ora 06 UTC la 15 ora 06 UTC
Vânt 8 kt de la Est
Vizibilitate: 10 km
Nori puțini la o înălțime de 5000 picior
Nori împrăștiați la o înălțime de 15000 picior

TAF: KVCT 140520Z 1406/1506 09008KT P6SM FEW050 SCT150

Observații și prognoze meteo pentru peste 4.000 de aeroporturi (rapoarte METAR și TAF).

Stațiile disponibile sunt reprezentate pe hartă prin puncte galbene și roșii.

Țineți indicatorul mouse-ului pe punctul dorit pentru a vedea denumirea stației.

Apoi, faceți clic pentru a vedea observațiile și prognozele meteorologice.

Pentru a schimba harta: Pentru mărire, faceți clic pe butoanele verzi cu cruce neagră; pentru micșorare, pe butonul verde cu o liniuță; pentru hărți învecinate, pe săgețile verzi.


METAR-TAF: